Airport View

Enter AWOS ICAO identifier for current METAR.

ex. KFNL

K1K1 251315Z AUTO 19013G18KT 10SM CLR 17/16 A2988 RMK AO2 T01700155

25 Sep 2020 13:47

Frequency: 118.3

Phone: 316-530-6004

Other Area AWOS: KAAO - K3AU - KBEC - KIAB

TAF KIAB 251000Z 2510/2616 18012KT 9999 SKC QNH2988INS BECMG 2514/2515 22012G18KT 9999 SKC QNH2978INS BECMG 2523/2524 18012KT 9999 SKC QNH2978INS TX31/2521Z TN17/2511Z